Latest Weather Observations for Coonawarra

IDS60801

Issued at 2:31 pm CST Monday 23 September 2019 (issued every 10 minutes, with the page automatically refreshed every 10 minutes)

About weather observations | Map of weather stations | Latest weather observations for SA | Other Formats
Station Details ID: 026091 Name: COONAWARRA Lat: -37.29 Lon: 140.83 Height: 57.0 m
Data from the previous 72 hours. | See also: Recent months at Coonawarra
Date/Time
CST
Temp
°C
App
Temp
°C
Dew
Point
°C
Rel
Hum
%
Delta-T
°C
Wind Press
QNH
hPa
Press
MSL
hPa
Rain since
9am
mm
Dir  Spd
km/h
Gust
km/h
Spd
kts
Gust
kts
23/02:00pm 13.6 8.6 4.7 55 4.1 WSW 20 24 11 13 1027.7 1027.7 0.6
23/01:30pm 13.5 7.1 5.1 57 3.9 SW 28 35 15 19 1027.8 1027.8 0.4
23/01:00pm 14.6 8.9 4.9 52 4.5 WSW 24 35 13 19 1027.7 1027.7 0.4
23/12:30pm 14.2 8.1 6.5 60 3.7 WSW 28 39 15 21 1027.7 1027.7 0.4
23/12:00pm 12.4 6.6 6.2 66 2.9 WSW 26 35 14 19 1027.8 1027.8 0.4
23/11:30am 10.7 5.3 8.0 83 1.3 WSW 26 35 14 19 1027.9 1027.9 0.4
23/11:00am 12.6 8.9 8.1 74 2.2 WSW 17 24 9 13 1027.7 1027.7 0.0
23/10:30am 11.2 5.2 7.0 75 2.0 SW 28 39 15 21 1027.6 1027.6 0.0
23/10:00am 11.7 7.5 8.2 79 1.7 WSW 20 28 11 15 1027.5 1027.5 0.0
23/09:30am 11.8 7.5 7.9 77 1.9 WSW 20 30 11 16 1027.3 1027.3 0.0
23/09:00am 11.1 6.9 7.6 79 1.7 WSW 19 28 10 15 1027.3 1027.3 10.0
23/08:30am 11.3 7.2 8.0 80 1.6 WSW 19 26 10 14 1026.9 1026.9 10.0
23/08:00am 9.2 5.8 7.5 89 0.8 W 15 22 8 12 1026.6 1026.6 10.0
23/07:30am 7.2 4.6 6.3 94 0.4 WNW 9 13 5 7 1026.1 1026.1 10.0
23/07:00am 6.1 3.0 5.6 97 0.2 NW 11 13 6 7 1025.7 1025.7 10.0
23/06:30am 3.9 1.3 3.4 97 0.2 NW 6 7 3 4 1025.2 1025.2 10.0
23/06:00am 3.4 -0.2 3.2 99 0.1 NW 11 13 6 7 1024.7 1024.7 10.0
23/05:30am 4.0 1.3 3.5 97 0.2 NNW 7 9 4 5 1024.3 1024.3 10.0
23/05:00am 4.9 1.6 4.4 97 0.2 NW 11 11 6 6 1023.8 1023.8 10.0
23/04:30am 4.7 1.0 4.2 97 0.2 NW 13 17 7 9 1023.4 1023.5 10.0
23/04:00am 4.7 0.9 4.0 95 0.3 NNW 13 17 7 9 1022.8 1022.9 9.8
23/03:30am 4.9 1.2 4.2 95 0.3 NNW 13 15 7 8 1022.5 1022.6 9.8
23/03:00am 5.1 1.8 4.6 97 0.2 NNW 11 17 6 9 1022.4 1022.5 9.8
23/02:30am 5.5 2.3 5.0 97 0.2 NNW 11 15 6 8 1022.3 1022.4 9.8
23/02:00am 6.3 2.5 5.6 95 0.3 NW 15 20 8 11 1022.5 1022.6 9.8
23/01:30am 6.5 3.0 5.6 94 0.4 WNW 13 17 7 9 1022.4 1022.5 9.4
23/01:00am 6.4 2.9 5.5 94 0.4 NW 13 17 7 9 1022.3 1022.4 9.0
23/12:30am 6.8 3.0 5.7 93 0.5 NW 15 20 8 11 1022.2 1022.3 9.0
23/12:00am 7.2 3.8 6.1 93 0.5 WNW 13 19 7 10 1022.1 1022.2 9.0
 
Date/Time
CST
Temp
°C
App
Temp
°C
Dew
Point
°C
Rel
Hum
%
Delta-T
°C
Wind Press
QNH
hPa
Press
MSL
hPa
Rain since
9am
mm
Dir  Spd
km/h
Gust
km/h
Spd
kts
Gust
kts
22/11:30pm 7.7 4.8 6.6 93 0.5 NW 11 15 6 8 1022.0 1022.1 9.0
22/11:00pm 8.0 4.9 7.4 96 0.3 NW 13 19 7 10 1022.2 1022.3 9.0
22/10:30pm 7.9 4.4 7.3 96 0.3 NW 15 24 8 13 1022.0 1022.1 8.8
22/10:00pm 8.2 4.8 7.6 96 0.3 NNW 15 20 8 11 1021.9 1022.0 8.8
22/09:30pm 8.2 4.7 7.3 94 0.4 NNW 15 19 8 10 1022.1 1022.2 8.6
22/09:00pm 8.2 4.3 7.1 93 0.5 NNW 17 24 9 13 1021.8 1021.9 8.4
22/08:30pm 8.3 4.7 6.8 90 0.7 NNW 15 20 8 11 1021.7 1021.8 8.4
22/08:00pm 8.0 5.5 6.5 90 0.7 N 9 13 5 7 1021.8 1021.9 8.4
22/07:30pm 8.1 6.0 6.8 91 0.6 NW 7 11 4 6 1022.1 1022.2 8.4
22/07:00pm 8.4 5.1 6.4 87 0.9 W 13 15 7 8 1022.1 1022.2 8.2
22/06:30pm 8.2 4.4 6.0 86 1.0 NW 15 19 8 10 1021.8 1021.9 8.2
22/06:00pm 8.6 3.5 6.0 84 1.2 NW 22 30 12 16 1021.5 1021.6 8.2
22/05:30pm 9.0 5.1 7.1 88 0.9 NW 17 24 9 13 1021.4 1021.5 8.2
22/05:00pm 8.9 4.9 6.7 86 1.0 NW 17 24 9 13 1021.5 1021.6 8.2
22/04:30pm 8.5 2.4 6.8 89 0.8 NW 28 43 15 23 1021.8 1021.9 7.8
22/04:00pm 8.7 4.3 7.2 90 0.7 WNW 20 30 11 16 1021.6 1021.7 6.6
22/03:30pm 8.8 4.1 7.7 93 0.5 W 22 35 12 19 1021.6 1021.7 5.6
22/03:00pm 9.4 2.7 7.3 87 1.0 WNW 32 56 17 30 1021.5 1021.6 4.4
22/02:59pm 9.7 3.0 7.4 85 1.1 WNW 32 56 17 30 1021.4 1021.5 4.4
22/02:57pm 10.1 3.8 7.4 83 1.3 WNW 30 56 16 30 1021.2 1021.3 4.4
22/02:35pm 13.0 7.0 7.0 67 2.9 NW 28 48 15 26 1020.8 1020.9 3.8
22/02:30pm 13.2 7.8 7.9 70 2.6 NW 26 35 14 19 1020.9 1021.0 3.8
22/02:00pm 10.4 7.2 8.6 89 0.9 NW 15 20 8 11 1021.3 1021.4 3.8
22/01:30pm 10.0 4.1 7.3 83 1.3 WNW 28 43 15 23 1021.8 1021.9 3.2
22/01:25pm 10.3 4.4 7.6 83 1.3 NW 28 43 15 23 1021.9 1022.0 2.8
22/01:00pm 10.3 6.5 7.6 83 1.3 NNW 17 24 9 13 1022.0 1022.1 2.4
22/12:30pm 10.7 7.5 8.5 86 1.1 NW 15 22 8 12 1022.0 1022.1 1.2
22/12:00pm 9.3 3.3 6.9 85 1.1 WNW 28 48 15 26 1022.5 1022.6 1.0
22/11:55am 9.4 3.9 7.5 88 0.9 NW 26 48 14 26 1022.5 1022.6 0.8
22/11:30am 11.6 6.4 7.4 75 2.0 NNW 24 35 13 19 1022.3 1022.4 0.0
22/11:00am 12.0 5.8 6.0 66 2.8 N 28 33 15 18 1022.4 1022.5 0.0
22/10:30am 11.3 5.6 6.9 74 2.1 N 26 35 14 19 1022.6 1022.7 0.0
22/10:00am 10.9 5.7 7.1 77 1.8 N 24 33 13 18 1022.8 1022.9 0.0
22/09:30am 10.7 5.5 7.1 78 1.7 N 24 30 13 16 1022.8 1022.9 0.0
22/09:00am 10.1 4.8 6.7 79 1.6 NNW 24 32 13 17 1022.8 1022.9 2.2
22/08:30am 9.7 5.1 6.7 81 1.4 N 20 26 11 14 1022.8 1022.9 2.2
22/08:00am 8.4 4.0 6.4 87 0.9 N 19 26 10 14 1022.6 1022.7 2.2
22/07:30am 7.5 3.3 5.9 90 0.7 N 17 22 9 12 1022.4 1022.5 2.2
22/07:00am 6.4 2.9 5.5 94 0.4 N 13 19 7 10 1022.2 1022.3 2.2
22/06:30am 5.9 2.3 5.2 95 0.3 N 13 19 7 10 1022.0 1022.1 2.2
22/06:00am 5.2 0.8 4.7 97 0.2 N 17 22 9 12 1021.7 1021.8 2.2
22/05:30am 4.9 1.2 4.4 97 0.2 N 13 19 7 10 1021.4 1021.5 2.2
22/05:00am 4.7 0.9 4.0 95 0.3 N 13 15 7 8 1021.1 1021.2 2.2
22/04:30am 5.3 1.6 4.6 95 0.3 N 13 17 7 9 1020.7 1020.8 2.2
22/04:00am 4.9 1.2 4.2 95 0.3 N 13 19 7 10 1020.7 1020.8 2.2
22/03:30am 4.6 0.8 3.9 95 0.3 N 13 15 7 8 1020.5 1020.6 2.2
22/03:00am 4.4 0.9 3.4 93 0.4 N 11 15 6 8 1020.5 1020.6 2.2
22/02:30am 4.2 0.7 3.5 95 0.3 N 11 15 6 8 1020.7 1020.8 2.2
22/02:00am 3.6 0.0 2.9 95 0.3 N 11 13 6 7 1020.7 1020.8 2.2
22/01:30am 3.1 -0.2 2.6 96 0.2 N 9 11 5 6 1020.8 1020.9 2.0
22/01:00am 3.6 0.0 2.9 95 0.3 N 11 11 6 6 1020.8 1020.9 2.0
22/12:30am 3.9 0.7 3.2 95 0.3 N 9 11 5 6 1020.8 1020.9 2.0
22/12:00am 4.0 0.8 2.8 92 0.5 N 9 13 5 7 1021.0 1021.1 2.0
 
Date/Time
CST
Temp
°C
App
Temp
°C
Dew
Point
°C
Rel
Hum
%
Delta-T
°C
Wind Press
QNH
hPa
Press
MSL
hPa
Rain since
9am
mm
Dir  Spd
km/h
Gust
km/h
Spd
kts
Gust
kts
21/11:30pm 4.4 1.2 3.2 92 0.5 NW 9 11 5 6 1021.0 1021.1 2.0
21/11:00pm 5.0 1.9 3.6 91 0.6 NNW 9 11 5 6 1020.8 1020.9 2.0
21/10:30pm 5.8 2.3 3.7 86 0.9 NW 11 15 6 8 1020.7 1020.8 2.0
21/10:00pm 5.6 1.8 3.7 87 0.8 NNW 13 17 7 9 1020.7 1020.8 2.0
21/09:30pm 5.2 1.7 3.3 87 0.8 NNW 11 15 6 8 1020.5 1020.6 2.0
21/09:00pm 5.1 2.0 3.4 89 0.7 NNW 9 11 5 6 1020.4 1020.5 2.0
21/08:30pm 5.9 2.8 3.8 86 0.9 NW 9 11 5 6 1020.3 1020.4 2.0
21/08:00pm 6.4 3.0 4.1 85 1.0 WNW 11 11 6 6 1020.0 1020.1 2.0
21/07:30pm 6.6 3.7 4.5 86 0.9 NW 9 9 5 5 1019.8 1019.9 2.0
21/07:00pm 7.5 4.6 4.8 83 1.2 WNW 9 11 5 6 1019.3 1019.4 2.0
21/06:30pm 8.5 5.2 4.7 77 1.7 W 11 15 6 8 1018.9 1019.0 2.0
21/06:00pm 9.1 5.7 6.0 81 1.4 W 13 19 7 10 1018.5 1018.6 2.0
21/05:30pm 10.3 6.4 5.5 72 2.2 WSW 15 20 8 11 1017.9 1018.0 2.0
21/05:00pm 11.1 5.1 5.2 67 2.7 WSW 26 37 14 20 1017.5 1017.6 2.0
21/04:30pm 11.6 5.9 6.5 71 2.4 WSW 26 39 14 21 1017.0 1017.1 2.0
21/04:00pm 11.2 6.1 7.5 78 1.8 WSW 24 41 13 22 1016.4 1016.4 2.0
21/03:30pm 10.5 5.7 7.4 81 1.5 WSW 22 35 12 19 1016.1 1016.1 1.8
21/03:00pm 10.9 6.3 8.2 83 1.3 WSW 22 39 12 21 1015.7 1015.7 1.4
21/02:30pm 11.7 6.4 8.5 81 1.6 WSW 26 35 14 19 1015.1 1015.1 1.2
21/02:00pm 11.9 6.8 7.8 76 2.0 WSW 24 32 13 17 1014.6 1014.6 1.2
21/01:30pm 10.4 5.6 9.0 91 0.7 WSW 24 33 13 18 1014.3 1014.3 1.2
21/01:00pm 11.8 7.0 7.2 73 2.2 WSW 22 35 12 19 1013.9 1013.9 0.6
21/12:30pm 12.6 7.6 6.5 66 2.9 SW 22 33 12 18 1013.3 1013.3 0.6
21/12:00pm 12.1 7.5 8.0 76 2.0 SW 22 30 12 16 1013.0 1013.0 0.6
21/11:30am 11.5 7.6 8.5 82 1.5 SW 19 24 10 13 1012.6 1012.6 0.6
21/11:00am 11.6 7.2 9.0 84 1.3 WSW 22 35 12 19 1012.4 1012.4 0.6
21/10:30am 10.2 6.1 8.8 91 0.7 SW 20 33 11 18 1012.1 1012.1 0.6
21/10:00am 10.7 6.8 9.5 92 0.6 WSW 20 26 11 14 1011.9 1011.9 0.2
21/09:30am 11.9 7.8 8.7 81 1.6 WSW 20 28 11 15 1011.4 1011.4 0.0
21/09:00am 10.9 6.0 8.5 85 1.2 SW 24 33 13 18 1011.2 1011.2 15.4
21/08:30am 10.2 5.4 9.0 92 0.6 WSW 24 35 13 19 1011.0 1011.0 15.4
21/08:00am 9.8 3.5 9.0 95 0.4 WSW 32 41 17 22 1010.1 1010.1 15.4
21/07:30am 9.6 2.6 8.6 93 0.5 W 35 50 19 27 1009.4 1009.4 15.2
21/07:00am 9.6 4.0 8.8 95 0.4 W 28 37 15 20 1009.3 1009.3 15.2
21/06:47am 10.0 6.1 9.4 96 0.3 NW 20 41 11 22 1009.4 1009.4 14.8
21/06:30am 11.1 8.8 10.5 96 0.3 NNW 13 17 7 9 1009.0 1009.0 14.0
21/06:00am 11.2 9.7 10.6 96 0.3 NW 9 13 5 7 1008.3 1008.3 14.0
21/05:30am 11.3 9.1 10.7 96 0.3 NW 13 17 7 9 1008.5 1008.5 13.8
21/05:00am 11.5 10.5 10.9 96 0.3 NNE 7 11 4 6 1008.6 1008.6 12.0
21/04:30am 11.6 10.5 10.8 95 0.4 SE 7 11 4 6 1007.7 1007.7 8.6
21/04:00am 11.5 10.7 10.9 96 0.3 SE 6 7 3 4 1008.0 1008.0 7.6
21/03:30am 11.6 10.2 10.8 95 0.4 ESE 9 13 5 7 1008.4 1008.4 6.6
21/03:00am 11.6 9.8 10.8 95 0.4 SSE 11 15 6 8 1008.1 1008.1 5.4
21/02:30am 11.6 9.8 10.8 95 0.4 SSE 11 15 6 8 1009.1 1009.1 5.2
21/02:00am 11.6 10.5 10.8 95 0.4 SW 7 9 4 5 1010.3 1010.3 5.2
21/01:30am 11.9 10.6 11.1 95 0.4 WSW 9 11 5 6 1010.8 1010.8 4.8
21/01:00am 12.1 10.8 11.1 94 0.5 WSW 9 13 5 7 1010.9 1010.9 4.4
21/12:30am 12.4 10.3 11.3 93 0.6 WSW 13 19 7 10 1010.7 1010.7 3.8
21/12:00am 12.6 10.7 11.7 94 0.5 SW 13 15 7 8 1010.5 1010.5 3.8
 
Date/Time
CST
Temp
°C
App
Temp
°C
Dew
Point
°C
Rel
Hum
%
Delta-T
°C
Wind Press
QNH
hPa
Press
MSL
hPa
Rain since
9am
mm
Dir  Spd
km/h
Gust
km/h
Spd
kts
Gust
kts
20/11:30pm 12.6 11.1 11.9 95 0.4 WSW 11 17 6 9 1011.2 1011.2 3.8
20/11:00pm 12.7 11.6 11.8 94 0.5 W 9 17 5 9 1011.7 1011.7 3.8
20/10:30pm 12.8 11.7 12.1 95 0.4 SSW 9 13 5 7 1011.2 1011.2 3.8
20/10:00pm 12.9 10.7 12.0 94 0.5 SSW 15 19 8 10 1011.4 1011.4 3.8
20/09:30pm 13.0 11.3 12.3 95 0.4 SSW 13 19 7 10 1011.5 1011.5 3.6
20/09:00pm 13.2 11.8 12.1 93 0.6 SSW 11 17 6 9 1012.4 1012.4 3.4
20/08:30pm 13.4 12.0 12.1 92 0.7 SW 11 17 6 9 1012.8 1012.8 2.4
20/08:00pm 13.8 12.2 11.4 85 1.3 SSW 11 19 6 10 1012.0 1012.0 0.4
20/07:30pm 14.1 11.9 10.9 81 1.7 SW 13 17 7 9 1011.9 1011.9 0.0
20/07:00pm 14.6 12.5 11.0 79 1.9 SSW 13 15 7 8 1011.4 1011.4 0.0
20/06:30pm 14.9 13.1 11.0 77 2.1 SW 11 15 6 8 1011.3 1011.3 0.0
20/06:00pm 15.8 13.8 11.4 75 2.4 SW 13 19 7 10 1010.9 1010.9 0.0
20/05:30pm 16.9 14.3 10.8 67 3.3 SSW 15 17 8 9 1011.2 1011.2 0.0
20/05:00pm 17.9 14.8 10.4 61 4.0 W 17 20 9 11 1011.5 1011.5 0.0
20/04:30pm 19.0 16.3 10.3 57 4.7 WNW 15 19 8 10 1011.5 1011.5 0.0
20/04:00pm 20.4 17.2 8.6 46 6.2 WNW 15 22 8 12 1011.5 1011.5 0.0
20/03:30pm 20.3 18.3 8.5 46 6.2 NW 9 15 5 8 1011.2 1011.2 0.0
20/03:00pm 20.3 17.8 8.2 45 6.3 NW 11 17 6 9 1011.5 1011.5 0.0

Other formats

Comma delimited format used in spreadsheet applications
http://www.bom.gov.au/fwo/IDS60801/IDS60801.94817.axf

JavaScript Object Notation format (JSON) in row-major order
http://www.bom.gov.au/fwo/IDS60801/IDS60801.94817.json

Data quality

Most of these data are generated automatically and are frequently updated. Quality checks on data are not normally performed. It is possible for incorrect values to appear. Refer to information at About Latest Weather Observations and please check the disclaimer before using these data.